createdAt,value
2023-04-16T00:02:23.016Z,5.40
2023-04-16T00:04:50.406Z,5.40
2023-04-16T00:07:17.287Z,4.80
2023-04-16T00:09:44.125Z,5.20
2023-04-16T00:12:10.975Z,6.00
2023-04-16T00:14:38.144Z,6.00
2023-04-16T00:17:05.110Z,5.90
2023-04-16T00:19:32.049Z,5.80
2023-04-16T00:21:59.038Z,5.90
2023-04-16T00:24:25.837Z,6.70
2023-04-16T00:26:52.761Z,6.20
2023-04-16T00:29:19.538Z,5.20
2023-04-16T00:31:46.373Z,5.80
2023-04-16T00:34:13.085Z,6.50
2023-04-16T00:36:39.967Z,5.90
2023-04-16T00:39:06.817Z,6.50
2023-04-16T00:41:33.867Z,6.30
2023-04-16T00:44:01.013Z,6.40
2023-04-16T00:46:28.138Z,6.60
2023-04-16T00:48:55.326Z,5.70
2023-04-16T00:51:22.683Z,6.90
2023-04-16T00:53:49.792Z,6.00
2023-04-16T00:56:17.705Z,6.40
2023-04-16T00:58:45.112Z,5.70
2023-04-16T01:01:12.034Z,6.50
2023-04-16T01:03:44.565Z,6.40
2023-04-16T01:06:11.901Z,6.40
2023-04-16T01:08:39.412Z,7.50
2023-04-16T01:11:06.596Z,5.10
2023-04-16T01:13:39.470Z,7.00
2023-04-16T01:16:11.412Z,6.50
2023-04-16T01:18:39.161Z,6.20
2023-04-16T01:21:11.170Z,6.60
2023-04-16T01:23:38.105Z,7.80
2023-04-16T01:26:04.863Z,7.20
2023-04-16T01:28:31.799Z,6.00
2023-04-16T01:31:01.032Z,6.60
2023-04-16T01:33:30.307Z,7.00
2023-04-16T01:35:57.152Z,7.20
2023-04-16T01:38:26.352Z,7.10
2023-04-16T01:40:59.816Z,7.10
2023-04-16T01:43:26.707Z,7.40
2023-04-16T01:46:08.327Z,7.80
2023-04-16T01:48:35.106Z,7.20
2023-04-16T01:51:05.723Z,7.40
2023-04-16T01:53:32.610Z,6.60
2023-04-16T01:56:02.332Z,7.50
2023-04-16T01:58:33.305Z,8.00
2023-04-16T02:01:00.726Z,7.80
2023-04-16T02:03:27.910Z,8.20
2023-04-16T02:05:55.036Z,8.50
2023-04-16T02:08:21.880Z,8.50
2023-04-16T02:10:50.376Z,8.10
2023-04-16T02:13:17.328Z,8.20
2023-04-16T02:15:48.355Z,8.60
2023-04-16T02:18:18.535Z,9.40
2023-04-16T02:20:46.752Z,9.80
2023-04-16T02:23:15.157Z,8.70
2023-04-16T02:25:43.361Z,9.70
2023-04-16T02:28:11.591Z,9.20
2023-04-16T02:30:39.462Z,9.20
2023-04-16T02:33:07.657Z,10.20
2023-04-16T02:35:35.403Z,11.00
2023-04-16T02:38:03.180Z,11.50
2023-04-16T02:40:31.131Z,9.90
2023-04-16T02:42:58.286Z,10.10
2023-04-16T02:45:25.436Z,10.20
2023-04-16T02:47:52.650Z,9.20
2023-04-16T02:50:19.669Z,9.60
2023-04-16T02:52:46.488Z,10.30
2023-04-16T02:55:13.359Z,10.60
2023-04-16T02:57:40.816Z,10.20
2023-04-16T03:00:08.892Z,9.50
2023-04-16T03:02:38.770Z,10.80
2023-04-16T03:05:06.479Z,10.20
2023-04-16T03:07:33.222Z,9.50
2023-04-16T03:10:00.032Z,10.20
2023-04-16T03:12:29.270Z,11.10
2023-04-16T03:14:56.215Z,10.40
2023-04-16T03:17:23.033Z,10.40
2023-04-16T03:19:50.944Z,11.40
2023-04-16T03:22:18.099Z,10.80
2023-04-16T03:24:47.319Z,10.90
2023-04-16T03:27:14.038Z,10.30
2023-04-16T03:29:41.507Z,10.60
2023-04-16T03:32:08.361Z,9.70
2023-04-16T03:34:36.979Z,10.30
2023-04-16T03:37:05.731Z,10.00
2023-04-16T03:39:34.381Z,10.90
2023-04-16T03:42:02.384Z,10.60
2023-04-16T03:44:30.053Z,10.40
2023-04-16T03:47:00.077Z,10.40
2023-04-16T03:49:26.929Z,10.80
2023-04-16T03:51:55.906Z,11.30
2023-04-16T03:54:23.082Z,11.10
2023-04-16T03:56:50.128Z,11.90
2023-04-16T03:59:16.979Z,12.10
2023-04-16T04:01:44.025Z,11.50
2023-04-16T04:04:11.198Z,11.20
2023-04-16T04:06:38.450Z,10.80
2023-04-16T04:09:06.221Z,11.50
2023-04-16T04:11:33.376Z,11.30
2023-04-16T04:14:00.211Z,12.40
2023-04-16T04:16:27.125Z,11.70
2023-04-16T04:18:55.383Z,12.10
2023-04-16T04:21:22.205Z,11.40
2023-04-16T04:23:49.032Z,11.70
2023-04-16T04:26:15.975Z,11.50
2023-04-16T04:28:42.889Z,11.90
2023-04-16T04:31:09.739Z,12.50
2023-04-16T04:33:36.855Z,11.90
2023-04-16T04:36:03.952Z,12.80
2023-04-16T04:38:31.461Z,14.20
2023-04-16T04:40:59.794Z,12.20
2023-04-16T04:43:26.679Z,13.70
2023-04-16T04:45:53.544Z,12.00
2023-04-16T04:48:21.800Z,13.10
2023-04-16T04:50:48.756Z,12.30
2023-04-16T04:53:18.340Z,12.80
2023-04-16T04:55:45.214Z,12.80
2023-04-16T04:58:12.063Z,13.00
2023-04-16T05:00:43.821Z,13.20
2023-04-16T05:03:12.188Z,12.70
2023-04-16T05:05:40.775Z,12.90
2023-04-16T05:08:07.888Z,12.40
2023-04-16T05:10:34.790Z,13.80
2023-04-16T05:13:02.062Z,12.40
2023-04-16T05:15:31.864Z,14.40
2023-04-16T05:17:58.721Z,13.20
2023-04-16T05:20:25.607Z,14.10
2023-04-16T05:22:52.440Z,13.60
2023-04-16T05:25:19.350Z,12.30
2023-04-16T05:27:48.217Z,12.70
2023-04-16T05:30:15.095Z,13.40
2023-04-16T05:32:41.978Z,12.40
2023-04-16T05:35:10.132Z,13.60
2023-04-16T05:37:37.174Z,13.60
2023-04-16T05:40:07.962Z,13.60
2023-04-16T05:42:34.949Z,13.30
2023-04-16T05:45:04.429Z,11.80
2023-04-16T05:47:31.412Z,13.40
2023-04-16T05:50:01.421Z,14.40
2023-04-16T05:52:28.381Z,15.00
2023-04-16T05:54:55.258Z,14.70
2023-04-16T05:57:22.051Z,13.60
2023-04-16T05:59:48.824Z,13.70
2023-04-16T06:02:16.156Z,13.80
2023-04-16T06:04:43.276Z,13.00
2023-04-16T06:07:10.075Z,12.70
2023-04-16T06:09:37.030Z,13.20
2023-04-16T06:12:04.312Z,13.70
2023-04-16T06:14:31.251Z,13.40
2023-04-16T06:16:58.118Z,13.20
2023-04-16T06:19:24.948Z,13.40
2023-04-16T06:21:51.796Z,12.80
2023-04-16T06:24:18.639Z,12.40
2023-04-16T06:26:45.899Z,12.40
2023-04-16T06:29:12.742Z,12.70
2023-04-16T06:31:39.631Z,13.40
2023-04-16T06:34:06.443Z,13.10
2023-04-16T06:36:33.283Z,12.40
2023-04-16T06:39:00.036Z,13.30
2023-04-16T06:41:27.200Z,13.20
2023-04-16T06:43:53.930Z,13.90
2023-04-16T06:46:23.347Z,13.10
2023-04-16T06:48:50.249Z,12.80
2023-04-16T06:51:17.137Z,13.00
2023-04-16T06:53:43.943Z,13.80
2023-04-16T06:56:10.953Z,13.00
2023-04-16T06:58:37.777Z,13.10
2023-04-16T07:01:05.534Z,13.70
2023-04-16T07:03:32.687Z,12.60
2023-04-16T07:05:59.957Z,12.70
2023-04-16T07:08:26.707Z,13.20
2023-04-16T07:10:54.574Z,12.50
2023-04-16T07:13:24.079Z,13.70
2023-04-16T07:15:50.925Z,13.20
2023-04-16T07:18:19.301Z,13.50
2023-04-16T07:20:48.203Z,12.70
2023-04-16T07:23:14.944Z,12.10
2023-04-16T07:25:44.533Z,12.50
2023-04-16T07:28:11.494Z,12.80
2023-04-16T07:30:38.369Z,14.00
2023-04-16T07:33:05.259Z,14.40
2023-04-16T07:35:32.578Z,13.00
2023-04-16T07:37:59.501Z,12.60
2023-04-16T07:40:26.829Z,12.30
2023-04-16T07:42:54.821Z,12.80
2023-04-16T07:45:21.902Z,13.10
2023-04-16T07:47:48.756Z,12.80
2023-04-16T07:50:16.564Z,13.80
2023-04-16T07:52:45.441Z,14.40
2023-04-16T07:55:12.306Z,12.70
2023-04-16T07:57:39.111Z,13.90
2023-04-16T08:00:07.146Z,12.50
2023-04-16T08:02:34.114Z,12.20
2023-04-16T08:05:01.460Z,13.20
2023-04-16T08:07:28.225Z,14.00
2023-04-16T08:09:55.076Z,13.00
2023-04-16T08:12:21.876Z,12.30
2023-04-16T08:14:48.770Z,13.20
2023-04-16T08:17:16.351Z,13.20
2023-04-16T08:19:46.398Z,13.00
2023-04-16T08:22:14.018Z,12.70
2023-04-16T08:24:41.217Z,12.80
2023-04-16T08:27:17.975Z,13.20
2023-04-16T08:29:45.925Z,13.40
2023-04-16T08:32:13.079Z,14.60
2023-04-16T08:34:39.828Z,13.30
2023-04-16T08:37:06.628Z,13.60
2023-04-16T08:39:36.736Z,13.70
2023-04-16T08:42:06.218Z,13.40
2023-04-16T08:44:35.507Z,13.20
2023-04-16T08:47:02.806Z,13.50
2023-04-16T08:49:30.215Z,13.10
2023-04-16T08:51:57.482Z,14.30
2023-04-16T08:54:43.276Z,14.60
2023-04-16T08:57:12.049Z,13.90
2023-04-16T08:59:39.506Z,16.30
2023-04-16T09:02:07.287Z,15.50
2023-04-16T09:04:34.468Z,16.40
2023-04-16T09:07:02.821Z,17.10
2023-04-16T09:09:29.852Z,17.20
2023-04-16T09:11:56.730Z,15.40
2023-04-16T09:14:23.566Z,16.30
2023-04-16T09:16:52.143Z,14.70
2023-04-16T09:19:19.143Z,15.00
2023-04-16T09:21:47.832Z,14.60
2023-04-16T09:24:14.854Z,15.20
2023-04-16T09:26:45.592Z,15.40
2023-04-16T09:29:12.531Z,16.40
2023-04-16T09:31:39.644Z,17.00
2023-04-16T09:34:09.763Z,16.90
2023-04-16T09:36:37.008Z,17.20
2023-04-16T09:39:04.177Z,16.80
2023-04-16T09:41:39.706Z,15.80
2023-04-16T09:44:06.824Z,15.10
2023-04-16T09:46:41.179Z,15.20
2023-04-16T09:49:15.599Z,14.20
2023-04-16T09:54:10.172Z,15.30
2023-04-16T09:56:44.921Z,15.80
2023-04-16T09:59:19.488Z,15.50
2023-04-16T10:04:24.141Z,17.10
2023-04-16T10:07:07.013Z,15.60
2023-04-16T10:09:40.283Z,15.70
2023-04-16T10:12:07.543Z,15.70
2023-04-16T10:14:35.022Z,13.20
2023-04-16T10:17:03.245Z,15.10
2023-04-16T10:19:31.776Z,14.50
2023-04-16T10:21:59.006Z,14.70
2023-04-16T10:24:26.376Z,15.10
2023-04-16T10:26:53.592Z,15.00
2023-04-16T10:29:23.453Z,14.00
2023-04-16T10:31:51.423Z,15.20
2023-04-16T10:34:18.872Z,14.70
2023-04-16T10:36:49.940Z,14.20
2023-04-16T10:39:20.171Z,14.80
2023-04-16T10:41:47.300Z,13.80
2023-04-16T10:44:17.446Z,14.30
2023-04-16T10:46:49.852Z,12.70
2023-04-16T10:49:24.104Z,14.40
2023-04-16T10:54:25.648Z,14.70
2023-04-16T10:56:53.256Z,13.40
2023-04-16T10:59:21.448Z,13.10
2023-04-16T11:01:52.174Z,13.30
2023-04-16T11:04:25.495Z,13.70
2023-04-16T11:07:26.697Z,13.60
2023-04-16T11:10:02.609Z,13.10
2023-04-16T11:12:29.500Z,13.60
2023-04-16T11:15:00.241Z,12.80
2023-04-16T11:17:34.052Z,14.20
2023-04-16T11:20:01.472Z,27.20
2023-04-16T11:22:28.368Z,15.20
2023-04-16T11:24:56.816Z,19.90
2023-04-16T11:27:30.226Z,14.60
2023-04-16T11:30:11.360Z,18.80
2023-04-16T11:32:38.935Z,12.90
2023-04-16T11:35:17.301Z,15.00
2023-04-16T11:37:48.569Z,17.40
2023-04-16T11:40:15.654Z,13.60
2023-04-16T11:42:43.554Z,14.30
2023-04-16T11:45:11.997Z,18.60
2023-04-16T11:47:52.563Z,13.20
2023-04-16T11:50:20.169Z,12.40
2023-04-16T11:52:47.883Z,12.20
2023-04-16T11:55:14.728Z,13.30
2023-04-16T11:57:41.723Z,22.30
2023-04-16T12:00:13.073Z,14.40
2023-04-16T12:02:45.415Z,29.80
2023-04-16T12:05:32.873Z,13.10
2023-04-16T12:08:01.503Z,17.00
2023-04-16T12:10:29.015Z,14.10
2023-04-16T12:13:13.068Z,12.80
2023-04-16T12:15:47.207Z,12.00
2023-04-16T12:18:16.222Z,16.00
2023-04-16T12:20:44.341Z,13.70
2023-04-16T12:23:22.150Z,12.50
2023-04-16T12:25:50.146Z,12.20
2023-04-16T12:28:38.434Z,12.00
2023-04-16T12:31:06.550Z,12.30
2023-04-16T12:33:33.698Z,12.50
2023-04-16T12:36:01.894Z,12.20
2023-04-16T12:38:29.636Z,12.80
2023-04-16T12:40:59.152Z,11.70
2023-04-16T12:43:26.440Z,10.80
2023-04-16T12:45:56.125Z,11.30
2023-04-16T12:48:25.202Z,12.30
2023-04-16T12:50:54.104Z,11.30
2023-04-16T12:53:20.874Z,11.30
2023-04-16T12:55:47.703Z,10.30
2023-04-16T12:58:14.537Z,10.90
2023-04-16T13:00:41.695Z,11.90
2023-04-16T13:03:08.623Z,11.50
2023-04-16T13:05:35.849Z,10.70
2023-04-16T13:08:02.766Z,11.90
2023-04-16T13:10:30.603Z,11.60
2023-04-16T13:12:57.474Z,10.70
2023-04-16T13:15:24.328Z,11.70
2023-04-16T13:17:51.509Z,11.70
2023-04-16T13:20:18.365Z,12.10
2023-04-16T13:22:45.208Z,11.60
2023-04-16T13:25:12.141Z,11.70
2023-04-16T13:27:39.091Z,11.00
2023-04-16T13:30:07.835Z,11.50
2023-04-16T13:32:34.739Z,11.30
2023-04-16T13:35:01.561Z,11.40
2023-04-16T13:37:28.300Z,11.60
2023-04-16T13:39:55.248Z,12.10
2023-04-16T13:42:22.272Z,11.70
2023-04-16T13:44:53.121Z,11.00
2023-04-16T13:47:20.116Z,11.00
2023-04-16T13:49:47.680Z,11.30
2023-04-16T13:52:14.466Z,10.90
2023-04-16T13:54:41.753Z,10.30
2023-04-16T13:57:08.548Z,11.00
2023-04-16T13:59:35.554Z,11.10
2023-04-16T14:02:02.681Z,11.10
2023-04-16T14:04:31.858Z,10.70
2023-04-16T14:06:58.971Z,12.60
2023-04-16T14:09:28.431Z,10.30
2023-04-16T14:11:55.833Z,10.30
2023-04-16T14:14:22.680Z,10.20
2023-04-16T14:16:49.624Z,10.50
2023-04-16T14:19:16.710Z,10.70
2023-04-16T14:21:43.526Z,9.90
2023-04-16T14:24:10.616Z,9.90
2023-04-16T14:26:37.505Z,10.40
2023-04-16T14:29:04.684Z,9.90
2023-04-16T14:31:32.503Z,9.80
2023-04-16T14:33:59.685Z,9.90
2023-04-16T14:36:27.489Z,10.10
2023-04-16T14:38:54.329Z,9.50
2023-04-16T14:41:21.690Z,9.70
2023-04-16T14:43:48.436Z,9.90
2023-04-16T14:46:17.909Z,10.20
2023-04-16T14:48:45.812Z,9.90
2023-04-16T14:51:12.784Z,9.50
2023-04-16T14:53:40.197Z,9.70
2023-04-16T14:56:07.179Z,9.70
2023-04-16T14:58:37.822Z,10.70
2023-04-16T15:01:06.268Z,9.20
2023-04-16T15:03:33.850Z,11.00
2023-04-16T15:06:01.020Z,9.00
2023-04-16T15:08:27.771Z,9.70
2023-04-16T15:10:54.704Z,9.40
2023-04-16T15:13:24.544Z,9.20
2023-04-16T15:15:51.597Z,9.10
2023-04-16T15:18:18.357Z,9.90
2023-04-16T15:20:47.528Z,10.30
2023-04-16T15:23:17.554Z,9.80
2023-04-16T15:25:44.599Z,9.50
2023-04-16T15:28:11.346Z,9.60
2023-04-16T15:30:40.537Z,9.40
2023-04-16T15:33:12.356Z,10.50
2023-04-16T15:35:41.413Z,9.60
2023-04-16T15:38:08.572Z,9.80
2023-04-16T15:40:36.548Z,10.00
2023-04-16T15:43:03.897Z,10.20
2023-04-16T15:45:32.081Z,8.80
2023-04-16T15:47:59.027Z,9.20
2023-04-16T15:50:26.521Z,9.20
2023-04-16T15:52:53.462Z,9.00
2023-04-16T15:55:20.995Z,9.10
2023-04-16T15:57:47.849Z,9.40
2023-04-16T16:00:17.337Z,8.70
2023-04-16T16:02:45.713Z,9.50
2023-04-16T16:05:13.810Z,9.60
2023-04-16T16:07:42.178Z,9.70
2023-04-16T16:10:11.315Z,10.50
2023-04-16T16:12:38.112Z,9.90
2023-04-16T16:15:06.499Z,9.50
2023-04-16T16:17:33.414Z,9.90
2023-04-16T16:20:00.527Z,10.60
2023-04-16T16:22:27.587Z,9.10
2023-04-16T16:24:56.312Z,9.50
2023-04-16T16:27:23.401Z,9.70
2023-04-16T16:29:50.690Z,9.20
2023-04-16T16:32:17.541Z,9.90
2023-04-16T16:34:44.486Z,10.00
2023-04-16T16:37:11.310Z,9.60
2023-04-16T16:39:38.973Z,11.00
2023-04-16T16:42:06.227Z,9.40
2023-04-16T16:44:33.114Z,8.60
2023-04-16T16:47:00.012Z,9.30
2023-04-16T16:49:27.118Z,9.20
2023-04-16T16:51:53.879Z,10.00
2023-04-16T16:54:21.056Z,9.60
2023-04-16T16:56:48.156Z,9.10
2023-04-16T16:59:15.022Z,9.90
2023-04-16T17:01:44.037Z,11.00
2023-04-16T17:04:10.982Z,9.20
2023-04-16T17:06:39.692Z,9.60
2023-04-16T17:09:07.285Z,9.50
2023-04-16T17:11:34.200Z,9.40
2023-04-16T17:14:01.340Z,9.90
2023-04-16T17:16:28.284Z,10.30
2023-04-16T17:18:55.437Z,9.50
2023-04-16T17:21:22.282Z,10.40
2023-04-16T17:23:49.131Z,9.50
2023-04-16T17:26:15.937Z,10.00
2023-04-16T17:28:42.861Z,10.60
2023-04-16T17:31:13.073Z,11.00
2023-04-16T17:33:40.115Z,10.30
2023-04-16T17:36:07.670Z,10.30
2023-04-16T17:38:34.830Z,10.30
2023-04-16T17:41:01.670Z,10.90
2023-04-16T17:43:28.639Z,10.00
2023-04-16T17:45:56.018Z,10.30
2023-04-16T17:48:25.385Z,10.20
2023-04-16T17:50:53.668Z,10.70
2023-04-16T17:53:20.773Z,11.50
2023-04-16T17:55:56.525Z,10.80
2023-04-16T17:58:24.081Z,12.70
2023-04-16T18:00:50.991Z,12.50
2023-04-16T18:03:19.391Z,12.40
2023-04-16T18:05:48.261Z,11.20
2023-04-16T18:08:15.000Z,11.10
2023-04-16T18:10:41.881Z,10.10
2023-04-16T18:13:08.700Z,11.50
2023-04-16T18:15:38.742Z,11.30
2023-04-16T18:18:06.131Z,11.50
2023-04-16T18:20:33.360Z,11.30
2023-04-16T18:23:00.606Z,10.90
2023-04-16T18:25:34.410Z,11.30
2023-04-16T18:28:03.967Z,12.30
2023-04-16T18:30:31.297Z,11.30
2023-04-16T18:35:28.038Z,12.20
2023-04-16T18:37:55.091Z,12.00
2023-04-16T18:40:21.876Z,12.70
2023-04-16T18:42:48.681Z,12.70
2023-04-16T18:45:21.140Z,13.10
2023-04-16T18:47:50.420Z,13.40
2023-04-16T18:50:17.503Z,13.60
2023-04-16T18:52:44.664Z,12.90
2023-04-16T18:55:11.527Z,12.80
2023-04-16T18:57:41.164Z,12.60
2023-04-16T19:00:12.841Z,12.00
2023-04-16T19:02:40.729Z,13.50
2023-04-16T19:05:09.548Z,13.00
2023-04-16T19:07:37.861Z,12.40
2023-04-16T19:10:05.680Z,13.00
2023-04-16T19:12:32.851Z,13.60
2023-04-16T19:14:59.687Z,14.60
2023-04-16T19:17:26.836Z,14.00
2023-04-16T19:19:53.887Z,13.10
2023-04-16T19:22:20.747Z,14.30
2023-04-16T19:24:47.595Z,12.90
2023-04-16T19:27:14.387Z,13.20
2023-04-16T19:29:43.569Z,14.10
2023-04-16T19:32:10.425Z,14.40
2023-04-16T19:34:37.401Z,14.80
2023-04-16T19:37:04.381Z,14.40
2023-04-16T19:39:31.847Z,15.00
2023-04-16T19:42:01.854Z,13.90
2023-04-16T19:44:29.124Z,14.20
2023-04-16T19:46:56.332Z,14.80
2023-04-16T19:49:25.291Z,13.70
2023-04-16T19:51:52.650Z,13.60
2023-04-16T19:54:19.488Z,14.20
2023-04-16T19:56:46.790Z,15.70
2023-04-16T19:59:13.686Z,15.50
2023-04-16T20:01:40.849Z,14.20
2023-04-16T20:04:07.851Z,16.20
2023-04-16T20:06:34.945Z,14.90
2023-04-16T20:09:01.756Z,15.20
2023-04-16T20:11:28.599Z,15.60
2023-04-16T20:13:56.407Z,15.70
2023-04-16T20:16:25.631Z,15.90
2023-04-16T20:18:54.506Z,16.00
2023-04-16T20:21:21.743Z,16.20
2023-04-16T20:23:48.745Z,15.20
2023-04-16T20:26:19.101Z,17.10
2023-04-16T20:28:46.492Z,16.40
2023-04-16T20:31:13.368Z,15.70
2023-04-16T20:33:42.904Z,16.30
2023-04-16T20:36:09.697Z,15.60
2023-04-16T20:38:38.213Z,15.50
2023-04-16T20:41:12.603Z,15.60
2023-04-16T20:43:42.059Z,17.00
2023-04-16T20:46:12.698Z,16.20
2023-04-16T20:48:42.150Z,17.00
2023-04-16T20:51:11.762Z,17.20
2023-04-16T20:53:41.169Z,16.20
2023-04-16T20:56:09.247Z,15.10
2023-04-16T20:58:36.455Z,16.30
2023-04-16T21:01:03.205Z,14.20
2023-04-16T21:03:30.101Z,16.30
2023-04-16T21:05:57.254Z,15.80
2023-04-16T21:08:24.303Z,16.00
2023-04-16T21:10:51.360Z,15.00
2023-04-16T21:13:21.778Z,15.90
2023-04-16T21:15:48.716Z,15.10
2023-04-16T21:18:17.130Z,15.70
2023-04-16T21:20:43.968Z,15.00
2023-04-16T21:23:11.069Z,14.50
2023-04-16T21:25:37.864Z,14.20
2023-04-16T21:28:05.444Z,16.00
2023-04-16T21:30:32.274Z,16.00
2023-04-16T21:32:59.129Z,15.70
2023-04-16T21:35:26.282Z,15.00
2023-04-16T21:37:53.141Z,15.10
2023-04-16T21:40:20.077Z,15.00
2023-04-16T21:42:46.930Z,14.90
2023-04-16T21:45:14.699Z,17.00
2023-04-16T21:47:41.607Z,15.20
2023-04-16T21:50:09.127Z,15.90
2023-04-16T21:52:40.700Z,15.60
2023-04-16T21:55:09.714Z,15.90
2023-04-16T21:57:36.674Z,14.80
2023-04-16T22:00:12.563Z,15.40
2023-04-16T22:02:43.451Z,15.60
2023-04-16T22:05:11.489Z,14.30
2023-04-16T22:07:40.671Z,14.60
2023-04-16T22:10:08.896Z,15.60
2023-04-16T22:12:39.817Z,15.20
2023-04-16T22:15:08.247Z,15.10
2023-04-16T22:17:35.964Z,16.10
2023-04-16T22:20:07.368Z,16.10
2023-04-16T22:22:34.117Z,15.50
2023-04-16T22:25:02.221Z,14.90
2023-04-16T22:27:29.167Z,14.00
2023-04-16T22:29:56.028Z,15.20
2023-04-16T22:32:23.173Z,15.90
2023-04-16T22:34:50.627Z,16.10
2023-04-16T22:37:17.341Z,15.60
2023-04-16T22:39:44.322Z,15.20
2023-04-16T22:42:11.378Z,16.20
2023-04-16T22:44:38.175Z,15.90
2023-04-16T22:47:05.172Z,16.30
2023-04-16T22:49:35.259Z,16.00
2023-04-16T22:52:02.800Z,15.50
2023-04-16T22:54:33.603Z,16.30
2023-04-16T22:57:01.148Z,16.00
2023-04-16T22:59:28.004Z,16.00
2023-04-16T23:01:54.966Z,16.00
2023-04-16T23:04:21.924Z,16.10
2023-04-16T23:06:48.796Z,16.10
2023-04-16T23:09:15.876Z,16.10
2023-04-16T23:11:45.126Z,15.10
2023-04-16T23:14:16.143Z,14.60
2023-04-16T23:16:43.608Z,15.10
2023-04-16T23:19:14.947Z,15.90
2023-04-16T23:21:42.038Z,16.60
2023-04-16T23:24:09.054Z,16.10
2023-04-16T23:26:35.751Z,17.30
2023-04-16T23:29:02.525Z,15.90
2023-04-16T23:31:29.458Z,15.70
2023-04-16T23:33:56.478Z,15.40
2023-04-16T23:36:23.392Z,14.90
2023-04-16T23:38:50.153Z,16.40
2023-04-16T23:41:16.938Z,17.60
2023-04-16T23:43:43.947Z,17.20
2023-04-16T23:46:10.709Z,18.00
2023-04-16T23:48:37.508Z,16.70
2023-04-16T23:51:04.589Z,16.60
2023-04-16T23:53:31.372Z,16.30
2023-04-16T23:55:58.139Z,16.00
2023-04-16T23:58:25.136Z,15.80
